createdAt,value
2019-01-26T00:00:54.963Z,2.23
2019-01-26T00:01:54.956Z,2.27
2019-01-26T00:02:54.945Z,2.12
2019-01-26T00:03:54.962Z,2.31
2019-01-26T00:04:54.923Z,2.25
2019-01-26T00:05:54.912Z,2.31
2019-01-26T00:06:54.903Z,2.36
2019-01-26T00:07:54.888Z,2.31
2019-01-26T00:08:54.906Z,2.20
2019-01-26T00:09:54.888Z,2.35
2019-01-26T00:10:54.857Z,2.35
2019-01-26T00:11:54.847Z,2.30
2019-01-26T00:12:54.833Z,2.39
2019-01-26T00:13:54.846Z,2.36
2019-01-26T00:14:54.813Z,2.31
2019-01-26T00:15:54.812Z,2.39
2019-01-26T00:16:54.790Z,2.36
2019-01-26T00:17:54.780Z,2.48
2019-01-26T00:18:54.791Z,2.59
2019-01-26T00:19:54.756Z,2.57
2019-01-26T00:20:54.746Z,2.60
2019-01-26T00:21:54.755Z,2.53
2019-01-26T00:22:54.725Z,2.52
2019-01-26T00:23:54.737Z,2.54
2019-01-26T00:24:54.701Z,2.59
2019-01-26T00:25:54.691Z,2.53
2019-01-26T00:26:54.698Z,2.52
2019-01-26T00:27:54.697Z,2.54
2019-01-26T00:28:54.680Z,2.53
2019-01-26T00:29:54.647Z,2.63
2019-01-26T00:30:54.636Z,2.54
2019-01-26T00:31:54.638Z,2.66
2019-01-26T00:32:54.616Z,2.67
2019-01-26T00:33:54.650Z,2.77
2019-01-26T00:34:54.595Z,2.74
2019-01-26T00:35:54.584Z,2.64
2019-01-26T00:36:54.569Z,2.72
2019-01-26T00:37:54.560Z,2.69
2019-01-26T00:38:54.575Z,2.79
2019-01-26T00:39:54.569Z,2.75
2019-01-26T00:40:54.529Z,2.74
2019-01-26T00:41:54.519Z,2.63
2019-01-26T00:42:54.507Z,2.59
2019-01-26T00:43:54.517Z,2.61
2019-01-26T00:44:54.483Z,2.61
2019-01-26T00:45:54.483Z,2.60
2019-01-26T00:46:54.461Z,2.59
2019-01-26T00:47:54.451Z,2.67
2019-01-26T00:48:54.462Z,2.69
2019-01-26T00:49:54.429Z,2.69
2019-01-26T00:50:54.437Z,2.64
2019-01-26T00:51:54.409Z,2.77
2019-01-26T00:52:54.397Z,2.85
2019-01-26T00:53:54.412Z,2.75
2019-01-26T00:54:54.374Z,2.72
2019-01-26T00:55:54.362Z,2.71
2019-01-26T00:56:54.355Z,2.72
2019-01-26T00:57:54.360Z,2.79
2019-01-26T00:58:54.388Z,2.77
2019-01-26T00:59:54.319Z,2.71
2019-01-26T01:00:54.309Z,2.72
2019-01-26T01:01:54.297Z,2.74
2019-01-26T01:02:54.286Z,2.77
2019-01-26T01:03:54.313Z,2.75
2019-01-26T01:04:54.264Z,2.84
2019-01-26T01:05:54.255Z,2.82
2019-01-26T01:06:54.254Z,2.95
2019-01-26T01:07:54.285Z,2.97
2019-01-26T01:08:54.249Z,2.95
2019-01-26T01:09:54.218Z,2.95
2019-01-26T01:10:54.202Z,2.81
2019-01-26T01:11:54.203Z,2.82
2019-01-26T01:12:54.178Z,2.90
2019-01-26T01:13:54.191Z,2.79
2019-01-26T01:14:54.158Z,2.90
2019-01-26T01:15:54.155Z,2.90
2019-01-26T01:16:54.136Z,2.75
2019-01-26T01:17:54.157Z,2.81
2019-01-26T01:18:54.215Z,2.79
2019-01-26T01:19:54.103Z,2.72
2019-01-26T01:20:54.168Z,2.64
2019-01-26T01:21:54.126Z,2.72
2019-01-26T01:22:54.072Z,2.77
2019-01-26T01:23:54.078Z,2.69
2019-01-26T01:24:54.074Z,2.69
2019-01-26T01:25:54.038Z,2.78
2019-01-26T01:26:54.033Z,2.72
2019-01-26T01:27:54.017Z,2.72
2019-01-26T01:28:54.009Z,2.75
2019-01-26T01:29:54.051Z,2.77
2019-01-26T01:30:53.990Z,2.89
2019-01-26T01:31:53.974Z,2.84
2019-01-26T01:32:53.962Z,2.90
2019-01-26T01:33:53.955Z,2.93
2019-01-26T01:34:53.996Z,3.00
2019-01-26T01:35:53.939Z,2.92
2019-01-26T01:36:53.921Z,2.84
2019-01-26T01:37:53.910Z,2.78
2019-01-26T01:38:53.898Z,2.78
2019-01-26T01:39:53.911Z,2.82
2019-01-26T01:40:53.877Z,2.87
2019-01-26T01:41:53.870Z,2.99
2019-01-26T01:42:53.857Z,2.97
2019-01-26T01:43:53.844Z,3.00
2019-01-26T01:44:53.862Z,3.06
2019-01-26T01:45:53.823Z,3.14
2019-01-26T01:46:53.813Z,3.11
2019-01-26T01:47:53.816Z,3.11
2019-01-26T01:48:53.790Z,3.05
2019-01-26T01:49:53.803Z,2.93
2019-01-26T01:50:53.772Z,2.97
2019-01-26T01:51:53.759Z,2.90
2019-01-26T01:52:53.748Z,2.96
2019-01-26T01:53:53.773Z,3.03
2019-01-26T01:54:53.757Z,3.18
2019-01-26T01:55:53.723Z,3.10
2019-01-26T01:56:53.704Z,3.14
2019-01-26T01:57:53.694Z,3.03
2019-01-26T01:58:53.684Z,3.05
2019-01-26T01:59:53.695Z,3.06
2019-01-26T02:00:53.672Z,3.10
2019-01-26T02:01:53.650Z,3.02
2019-01-26T02:02:53.641Z,3.08
2019-01-26T02:03:53.629Z,3.15
2019-01-26T02:04:53.646Z,3.26
2019-01-26T02:05:53.607Z,3.17
2019-01-26T02:06:53.599Z,3.20
2019-01-26T02:07:53.597Z,3.14
2019-01-26T02:08:53.576Z,3.21
2019-01-26T02:09:53.590Z,3.31
2019-01-26T02:10:53.554Z,3.29
2019-01-26T02:11:53.543Z,3.21
2019-01-26T02:12:53.533Z,3.29
2019-01-26T02:13:53.538Z,3.36
2019-01-26T02:14:53.533Z,3.40
2019-01-26T02:15:53.504Z,3.29
2019-01-26T02:16:53.496Z,3.35
2019-01-26T02:17:53.477Z,3.40
2019-01-26T02:18:53.469Z,3.40
2019-01-26T02:19:53.497Z,3.26
2019-01-26T02:20:53.454Z,3.36
2019-01-26T02:21:53.441Z,3.21
2019-01-26T02:22:53.427Z,3.23
2019-01-26T02:23:53.416Z,3.32
2019-01-26T02:24:53.427Z,3.23
2019-01-26T02:25:53.421Z,3.40
2019-01-26T02:26:53.405Z,3.24
2019-01-26T02:27:53.370Z,3.43
2019-01-26T02:28:53.360Z,3.40
2019-01-26T02:29:53.373Z,3.39
2019-01-26T02:30:53.339Z,3.36
2019-01-26T02:31:53.332Z,3.31
2019-01-26T02:32:54.646Z,3.42
2019-01-26T02:33:53.309Z,3.36
2019-01-26T02:34:53.321Z,3.33
2019-01-26T02:35:53.291Z,3.45
2019-01-26T02:36:53.277Z,3.55
2019-01-26T02:37:53.263Z,3.45
2019-01-26T02:38:53.269Z,3.61
2019-01-26T02:39:53.272Z,3.65
2019-01-26T02:40:53.231Z,3.61
2019-01-26T02:41:53.220Z,3.60
2019-01-26T02:42:53.211Z,3.60
2019-01-26T02:43:53.200Z,3.58
2019-01-26T02:44:53.227Z,3.51
2019-01-26T02:45:53.177Z,3.51
2019-01-26T02:46:57.957Z,3.65
2019-01-26T02:47:54.156Z,3.62
2019-01-26T02:48:53.146Z,3.76
2019-01-26T02:49:53.158Z,3.73
2019-01-26T02:50:53.138Z,3.78
2019-01-26T02:51:53.116Z,3.69
2019-01-26T02:52:53.104Z,3.62
2019-01-26T02:53:53.091Z,3.69
2019-01-26T02:54:53.124Z,3.69
2019-01-26T02:55:53.072Z,3.78
2019-01-26T02:56:53.081Z,3.75
2019-01-26T02:57:53.048Z,3.69
2019-01-26T02:58:53.037Z,3.69
2019-01-26T02:59:53.027Z,3.72
2019-01-26T03:00:53.040Z,3.68
2019-01-26T03:01:53.029Z,3.62
2019-01-26T03:02:53.005Z,3.73
2019-01-26T03:03:52.982Z,3.60
2019-01-26T03:04:52.988Z,3.58
2019-01-26T03:05:52.985Z,3.65
2019-01-26T03:06:52.951Z,3.57
2019-01-26T03:07:52.943Z,3.75
2019-01-26T03:08:52.942Z,3.76
2019-01-26T03:09:52.924Z,3.76
2019-01-26T03:10:52.931Z,3.76
2019-01-26T03:11:52.903Z,3.72
2019-01-26T03:12:52.885Z,3.72
2019-01-26T03:13:52.878Z,3.78
2019-01-26T03:14:52.878Z,3.83
2019-01-26T03:15:52.875Z,3.80
2019-01-26T03:16:52.846Z,3.86
2019-01-26T03:17:52.839Z,3.91
2019-01-26T03:18:52.820Z,3.80
2019-01-26T03:19:52.816Z,3.87
2019-01-26T03:20:52.844Z,3.88
2019-01-26T03:21:52.793Z,3.83
2019-01-26T03:22:52.779Z,3.75
2019-01-26T03:23:52.775Z,3.83
2019-01-26T03:24:52.759Z,3.87
2019-01-26T03:25:52.775Z,3.79
2019-01-26T03:26:52.746Z,3.75
2019-01-26T03:27:52.723Z,3.73
2019-01-26T03:28:52.716Z,3.87
2019-01-26T03:29:52.704Z,3.88
2019-01-26T03:30:52.726Z,3.80
2019-01-26T03:31:52.683Z,3.70
2019-01-26T03:32:52.696Z,3.76
2019-01-26T03:33:52.659Z,3.75
2019-01-26T03:34:52.652Z,3.84
2019-01-26T03:35:52.669Z,3.86
2019-01-26T03:36:52.637Z,3.83
2019-01-26T03:37:52.618Z,3.80
2019-01-26T03:38:52.614Z,3.79
2019-01-26T03:39:52.611Z,3.84
2019-01-26T03:40:52.612Z,3.90
2019-01-26T03:41:52.572Z,3.79
2019-01-26T03:42:52.564Z,3.88
2019-01-26T03:43:52.552Z,3.87
2019-01-26T03:44:52.544Z,3.91
2019-01-26T03:45:52.558Z,3.93
2019-01-26T03:46:52.519Z,3.91
2019-01-26T03:47:52.516Z,3.78
2019-01-26T03:48:52.500Z,3.91
2019-01-26T03:49:53.709Z,3.93
2019-01-26T03:50:52.499Z,3.96
2019-01-26T03:51:52.467Z,3.90
2019-01-26T03:52:52.457Z,3.91
2019-01-26T03:53:52.447Z,3.94
2019-01-26T03:54:52.432Z,4.09
2019-01-26T03:55:52.445Z,4.02
2019-01-26T03:56:52.411Z,4.05
2019-01-26T03:57:52.421Z,4.11
2019-01-26T03:58:52.404Z,4.14
2019-01-26T03:59:52.380Z,4.14
2019-01-26T04:00:52.391Z,4.09
2019-01-26T04:01:52.369Z,4.02
2019-01-26T04:02:52.353Z,4.08
2019-01-26T04:03:52.356Z,4.12
2019-01-26T04:04:52.326Z,4.14
2019-01-26T04:05:52.337Z,4.08
2019-01-26T04:06:52.306Z,4.12
2019-01-26T04:07:52.350Z,3.93
2019-01-26T04:08:52.280Z,3.94
2019-01-26T04:09:52.334Z,4.04
2019-01-26T04:10:52.295Z,4.08
2019-01-26T04:11:52.255Z,4.18
2019-01-26T04:12:52.245Z,4.16
2019-01-26T04:13:52.228Z,4.15
2019-01-26T04:14:52.217Z,4.12
2019-01-26T04:15:52.231Z,4.15
2019-01-26T04:16:52.199Z,4.15
2019-01-26T04:17:52.183Z,4.08
2019-01-26T04:18:52.172Z,4.15
2019-01-26T04:19:52.161Z,4.09
2019-01-26T04:20:52.175Z,4.23
2019-01-26T04:21:52.142Z,4.16
2019-01-26T04:22:52.147Z,4.24
2019-01-26T04:23:52.115Z,4.27
2019-01-26T04:24:52.107Z,4.29
2019-01-26T04:25:52.142Z,4.29
2019-01-26T04:26:52.092Z,4.18
2019-01-26T04:27:52.079Z,4.27
2019-01-26T04:28:52.068Z,4.27
2019-01-26T04:29:52.055Z,4.18
2019-01-26T04:30:52.080Z,4.33
2019-01-26T04:31:52.045Z,4.29
2019-01-26T04:32:52.035Z,4.37
2019-01-26T04:33:52.007Z,4.34
2019-01-26T04:34:52.007Z,4.22
2019-01-26T04:35:51.986Z,4.26
2019-01-26T04:36:52.001Z,4.32
2019-01-26T04:37:51.968Z,4.22
2019-01-26T04:38:51.955Z,4.34
2019-01-26T04:39:51.943Z,4.22
2019-01-26T04:40:51.932Z,4.16
2019-01-26T04:41:51.961Z,4.23
2019-01-26T04:42:51.911Z,4.27
2019-01-26T04:43:51.899Z,4.18
2019-01-26T04:44:51.889Z,4.09
2019-01-26T04:45:51.883Z,4.20
2019-01-26T04:46:51.893Z,4.24
2019-01-26T04:47:51.868Z,4.27
2019-01-26T04:48:51.847Z,4.33
2019-01-26T04:49:51.835Z,4.37
2019-01-26T04:50:51.824Z,4.27
2019-01-26T04:51:51.835Z,4.30
2019-01-26T04:52:51.804Z,4.26
2019-01-26T04:53:51.811Z,4.37
2019-01-26T04:54:51.781Z,4.37
2019-01-26T04:55:51.770Z,4.40
2019-01-26T04:56:51.784Z,4.40
2019-01-26T04:57:51.750Z,4.42
2019-01-26T04:58:51.740Z,4.42
2019-01-26T04:59:51.778Z,4.34
2019-01-26T05:00:51.720Z,4.42
2019-01-26T05:01:51.729Z,4.36
2019-01-26T05:02:51.696Z,4.42
2019-01-26T05:03:51.684Z,4.48
2019-01-26T05:04:51.696Z,4.45
2019-01-26T05:05:51.668Z,4.47
2019-01-26T05:06:51.675Z,4.41
2019-01-26T05:07:51.652Z,4.47
2019-01-26T05:08:51.628Z,4.51
2019-01-26T05:09:51.618Z,4.47
2019-01-26T05:10:51.613Z,4.50
2019-01-26T05:11:51.816Z,4.47
2019-01-26T05:12:51.611Z,4.58
2019-01-26T05:13:51.575Z,4.67
2019-01-26T05:14:51.564Z,4.58
2019-01-26T05:15:51.552Z,4.59
2019-01-26T05:16:51.542Z,4.62
2019-01-26T05:17:51.560Z,4.67
2019-01-26T05:18:51.544Z,4.62
2019-01-26T05:19:51.512Z,4.59
2019-01-26T05:20:51.497Z,4.58
2019-01-26T05:21:51.487Z,4.75
2019-01-26T05:22:51.498Z,4.70
2019-01-26T05:23:51.464Z,4.67
2019-01-26T05:24:51.466Z,4.73
2019-01-26T05:25:51.442Z,4.73
2019-01-26T05:26:51.431Z,4.80
2019-01-26T05:27:51.444Z,4.80
2019-01-26T05:28:51.409Z,4.77
2019-01-26T05:29:51.401Z,4.85
2019-01-26T05:30:51.394Z,4.77
2019-01-26T05:31:51.378Z,4.72
2019-01-26T05:32:51.390Z,4.80
2019-01-26T05:33:51.356Z,4.82
2019-01-26T05:34:51.347Z,4.77
2019-01-26T05:35:51.338Z,4.80
2019-01-26T05:36:51.334Z,4.84
2019-01-26T05:37:51.336Z,4.82
2019-01-26T05:38:51.300Z,4.82
2019-01-26T05:39:51.293Z,4.77
2019-01-26T05:40:51.283Z,4.82
2019-01-26T05:41:51.269Z,4.84
2019-01-26T05:42:51.299Z,4.91
2019-01-26T05:43:51.246Z,4.80
2019-01-26T05:44:51.236Z,4.89
2019-01-26T05:45:51.225Z,4.89
2019-01-26T05:46:51.213Z,4.89
2019-01-26T05:47:51.227Z,4.92
2019-01-26T05:48:51.197Z,4.89
2019-01-26T05:49:51.199Z,4.94
2019-01-26T05:50:51.170Z,4.94
2019-01-26T05:51:51.161Z,4.91
2019-01-26T05:52:51.174Z,4.94
2019-01-26T05:53:51.146Z,4.97
2019-01-26T05:54:51.127Z,4.96
2019-01-26T05:55:51.127Z,4.99
2019-01-26T05:56:51.104Z,4.96
2019-01-26T05:57:51.118Z,4.91
2019-01-26T05:58:51.082Z,4.89
2019-01-26T05:59:51.072Z,4.84
2019-01-26T06:00:51.064Z,4.96
2019-01-26T06:01:51.053Z,4.94
2019-01-26T06:02:51.062Z,4.99
2019-01-26T06:03:51.045Z,5.06
2019-01-26T06:04:51.030Z,4.94
2019-01-26T06:05:51.019Z,5.02
2019-01-26T06:06:50.998Z,5.00
2019-01-26T06:07:51.021Z,4.97
2019-01-26T06:08:50.974Z,5.04
2019-01-26T06:09:50.961Z,4.97
2019-01-26T06:10:50.972Z,5.02
2019-01-26T06:11:50.942Z,5.04
2019-01-26T06:12:50.957Z,5.09
2019-01-26T06:13:50.919Z,5.03
2019-01-26T06:14:50.910Z,5.00
2019-01-26T06:15:50.907Z,4.97
2019-01-26T06:16:50.888Z,5.09
2019-01-26T06:17:54.927Z,5.07
2019-01-26T06:18:50.865Z,4.97
2019-01-26T06:19:50.853Z,5.07
2019-01-26T06:20:50.843Z,5.02
2019-01-26T06:21:50.845Z,5.10
2019-01-26T06:22:50.843Z,5.13
2019-01-26T06:23:50.811Z,5.07
2019-01-26T06:24:50.799Z,5.06
2019-01-26T06:25:50.788Z,5.10
2019-01-26T06:26:50.775Z,5.03
2019-01-26T06:27:50.804Z,5.03
2019-01-26T06:28:50.755Z,5.02
2019-01-26T06:29:50.743Z,5.13
2019-01-26T06:30:50.733Z,5.12
2019-01-26T06:31:50.727Z,5.18
2019-01-26T06:32:50.737Z,5.13
2019-01-26T06:33:50.703Z,5.06
2019-01-26T06:34:50.690Z,5.09
2019-01-26T06:35:50.677Z,5.09
2019-01-26T06:36:50.667Z,5.00
2019-01-26T06:37:50.680Z,5.04
2019-01-26T06:38:50.644Z,5.09
2019-01-26T06:39:50.639Z,5.12
2019-01-26T06:40:50.622Z,5.09
2019-01-26T06:41:50.612Z,5.18
2019-01-26T06:42:50.622Z,5.06
2019-01-26T06:43:50.588Z,5.13
2019-01-26T06:44:50.577Z,5.18
2019-01-26T06:45:50.573Z,5.12
2019-01-26T06:46:50.557Z,5.06
2019-01-26T06:47:50.570Z,5.07
2019-01-26T06:48:50.533Z,5.10
2019-01-26T06:49:50.522Z,5.15
2019-01-26T06:50:50.511Z,5.15
2019-01-26T06:51:50.510Z,5.15
2019-01-26T06:52:50.549Z,5.13
2019-01-26T06:53:50.482Z,5.12
2019-01-26T06:54:50.488Z,5.06
2019-01-26T06:55:50.467Z,5.13
2019-01-26T06:56:50.447Z,5.10
2019-01-26T06:57:50.434Z,5.10
2019-01-26T06:58:50.448Z,5.13
2019-01-26T06:59:50.414Z,5.12
2019-01-26T07:00:50.410Z,5.06
2019-01-26T07:01:50.391Z,5.12
2019-01-26T07:02:50.382Z,5.04
2019-01-26T07:03:50.393Z,5.12
2019-01-26T07:04:50.359Z,5.13
2019-01-26T07:05:50.346Z,5.07
2019-01-26T07:06:50.342Z,5.13
2019-01-26T07:07:50.333Z,5.20
2019-01-26T07:08:50.338Z,5.13
2019-01-26T07:09:50.306Z,5.15
2019-01-26T07:10:50.292Z,5.15
2019-01-26T07:11:50.281Z,5.12
2019-01-26T07:12:50.269Z,5.07
2019-01-26T07:13:50.296Z,5.12
2019-01-26T07:14:50.258Z,5.20
2019-01-26T07:15:50.236Z,5.12
2019-01-26T07:16:50.226Z,5.27
2019-01-26T07:17:50.214Z,5.12
2019-01-26T07:18:50.228Z,5.20
2019-01-26T07:19:50.192Z,5.17
2019-01-26T07:20:50.189Z,5.18
2019-01-26T07:21:50.174Z,5.24
2019-01-26T07:22:50.159Z,5.24
2019-01-26T07:23:50.174Z,5.22
2019-01-26T07:24:50.137Z,5.10
2019-01-26T07:25:50.129Z,5.17
2019-01-26T07:26:50.129Z,5.24
2019-01-26T07:27:50.107Z,5.07
2019-01-26T07:28:50.117Z,5.13
2019-01-26T07:29:50.081Z,5.13
2019-01-26T07:30:50.071Z,5.13
2019-01-26T07:31:50.061Z,5.13
2019-01-26T07:32:50.062Z,5.09
2019-01-26T07:33:50.062Z,5.12
2019-01-26T07:34:50.027Z,5.21
2019-01-26T07:35:50.016Z,5.24
2019-01-26T07:36:50.012Z,5.18
2019-01-26T07:37:49.995Z,5.13
2019-01-26T07:38:50.022Z,5.10
2019-01-26T07:39:49.973Z,5.15
2019-01-26T07:40:49.963Z,5.17
2019-01-26T07:41:49.952Z,5.20
2019-01-26T07:42:49.940Z,5.25
2019-01-26T07:43:49.954Z,5.27
2019-01-26T07:44:49.939Z,5.27
2019-01-26T07:45:49.915Z,5.27
2019-01-26T07:46:49.912Z,5.25
2019-01-26T07:47:49.884Z,5.27
2019-01-26T07:48:49.896Z,5.28
2019-01-26T07:49:49.863Z,5.22
2019-01-26T07:50:49.850Z,5.27
2019-01-26T07:51:49.840Z,5.17
2019-01-26T07:52:49.850Z,5.18
2019-01-26T07:53:49.850Z,5.30
2019-01-26T07:54:49.807Z,5.22
2019-01-26T07:55:49.837Z,5.30
2019-01-26T07:56:49.787Z,5.25
2019-01-26T07:57:49.774Z,5.30
2019-01-26T07:58:49.791Z,5.33
2019-01-26T07:59:49.768Z,5.31
2019-01-26T08:00:49.742Z,5.35
2019-01-26T08:01:49.730Z,5.36
2019-01-26T08:02:49.719Z,5.38
2019-01-26T08:03:49.735Z,5.31
2019-01-26T08:04:49.700Z,5.40
2019-01-26T08:05:49.687Z,5.31
2019-01-26T08:06:49.681Z,5.38
2019-01-26T08:07:49.669Z,5.30
2019-01-26T08:08:49.677Z,5.36
2019-01-26T08:09:49.641Z,5.31
2019-01-26T08:10:49.630Z,5.31
2019-01-26T08:11:49.619Z,5.30
2019-01-26T08:12:49.613Z,5.39
2019-01-26T08:13:49.637Z,5.36
2019-01-26T08:14:49.587Z,5.35
2019-01-26T08:15:49.576Z,5.28
2019-01-26T08:16:49.567Z,5.33
2019-01-26T08:17:49.553Z,5.40
2019-01-26T08:18:49.569Z,5.38
2019-01-26T08:19:49.537Z,5.39
2019-01-26T08:20:49.521Z,5.38
2019-01-26T08:21:49.511Z,5.38
2019-01-26T08:22:49.499Z,5.40
2019-01-26T08:23:49.511Z,5.38
2019-01-26T08:24:49.478Z,5.36
2019-01-26T08:25:49.478Z,5.39
2019-01-26T08:26:49.455Z,5.38
2019-01-26T08:27:49.443Z,5.42
2019-01-26T08:28:49.456Z,5.43
2019-01-26T08:29:49.425Z,5.43
2019-01-26T08:30:49.409Z,5.42
2019-01-26T08:31:49.411Z,5.43
2019-01-26T08:32:49.388Z,5.38
2019-01-26T08:33:49.415Z,5.35
2019-01-26T08:34:49.365Z,5.38
2019-01-26T08:35:49.356Z,5.40
2019-01-26T08:36:49.343Z,5.36
2019-01-26T08:37:49.341Z,5.36
2019-01-26T08:38:49.326Z,5.45
2019-01-26T08:39:49.340Z,5.36
2019-01-26T08:40:49.306Z,5.42
2019-01-26T08:41:49.289Z,5.42
2019-01-26T08:42:49.278Z,5.48
2019-01-26T08:43:49.266Z,5.45
2019-01-26T08:44:49.283Z,5.48
2019-01-26T08:45:49.245Z,5.46
2019-01-26T08:46:49.242Z,5.38
2019-01-26T08:47:49.223Z,5.43
2019-01-26T08:48:49.214Z,5.48
2019-01-26T08:49:49.223Z,5.48
2019-01-26T08:50:49.191Z,5.43
2019-01-26T08:51:49.179Z,5.53
2019-01-26T08:52:49.174Z,5.48
2019-01-26T08:53:49.157Z,5.49
2019-01-26T08:54:49.169Z,5.51
2019-01-26T08:55:49.135Z,5.51
2019-01-26T08:56:49.131Z,5.42
2019-01-26T08:57:49.115Z,5.46
2019-01-26T08:58:49.110Z,5.46
2019-01-26T08:59:49.116Z,5.45
2019-01-26T09:00:49.079Z,5.46
2019-01-26T09:01:49.070Z,5.43
2019-01-26T09:02:49.059Z,5.51
2019-01-26T09:03:49.048Z,5.43
2019-01-26T09:04:49.068Z,5.49
2019-01-26T09:05:49.026Z,5.54
2019-01-26T09:06:49.014Z,5.49
2019-01-26T09:07:49.004Z,5.49
2019-01-26T09:08:48.992Z,5.53
2019-01-26T09:09:49.005Z,5.54
2019-01-26T09:10:48.983Z,5.56
2019-01-26T09:11:48.959Z,5.53
2019-01-26T09:12:48.951Z,5.53
2019-01-26T09:13:48.940Z,5.49
2019-01-26T09:14:48.956Z,5.49
2019-01-26T09:15:48.918Z,5.51
2019-01-26T09:16:48.906Z,5.56
2019-01-26T09:17:48.897Z,5.48
2019-01-26T09:18:48.883Z,5.49
2019-01-26T09:19:48.896Z,5.54
2019-01-26T09:20:48.861Z,5.51
2019-01-26T09:21:48.850Z,5.54
2019-01-26T09:22:48.864Z,5.60
2019-01-26T09:23:48.829Z,5.56
2019-01-26T09:24:48.843Z,5.60
2019-01-26T09:25:48.807Z,5.60
2019-01-26T09:26:48.799Z,5.58
2019-01-26T09:27:48.785Z,5.57
2019-01-26T09:28:48.777Z,5.58
2019-01-26T09:29:48.794Z,5.48
2019-01-26T09:30:48.754Z,5.46
2019-01-26T09:31:48.744Z,5.56
2019-01-26T09:32:48.732Z,5.60
2019-01-26T09:33:48.724Z,5.61
2019-01-26T09:34:48.737Z,5.63
2019-01-26T09:35:48.703Z,5.60
2019-01-26T09:36:48.701Z,5.49
2019-01-26T09:37:48.677Z,5.58
2019-01-26T09:38:48.669Z,5.58
2019-01-26T09:39:48.681Z,5.60
2019-01-26T09:40:48.643Z,5.53
2019-01-26T09:41:48.634Z,5.49
2019-01-26T09:42:48.633Z,5.56
2019-01-26T09:43:48.609Z,5.45
2019-01-26T09:44:48.622Z,5.57
2019-01-26T09:45:48.589Z,5.60
2019-01-26T09:46:48.580Z,5.61
2019-01-26T09:47:48.565Z,5.57
2019-01-26T09:48:48.564Z,5.61
2019-01-26T09:49:48.568Z,5.58
2019-01-26T09:50:48.544Z,5.54
2019-01-26T09:51:48.522Z,5.46
2019-01-26T09:52:48.511Z,5.54
2019-01-26T09:53:48.500Z,5.54
2019-01-26T09:54:48.525Z,5.45
2019-01-26T09:55:48.484Z,5.54
2019-01-26T09:56:48.467Z,5.54
2019-01-26T09:57:48.455Z,5.56
2019-01-26T09:58:48.443Z,5.45
2019-01-26T09:59:48.457Z,5.53
2019-01-26T10:00:48.454Z,5.48
2019-01-26T10:01:48.412Z,5.46
2019-01-26T10:02:48.400Z,5.56
2019-01-26T10:03:49.510Z,5.54
2019-01-26T10:04:48.404Z,5.53
2019-01-26T10:05:48.373Z,5.53
2019-01-26T10:06:48.371Z,5.53
2019-01-26T10:07:48.347Z,5.49
2019-01-26T10:08:48.334Z,5.45
2019-01-26T10:09:48.348Z,5.53
2019-01-26T10:10:48.319Z,5.51
2019-01-26T10:11:48.301Z,5.51
2019-01-26T10:12:48.300Z,5.53
2019-01-26T10:13:48.316Z,5.53
2019-01-26T10:14:48.297Z,5.56
2019-01-26T10:15:48.260Z,5.57
2019-01-26T10:16:48.248Z,5.67
2019-01-26T10:17:48.235Z,5.61
2019-01-26T10:18:53.505Z,5.61
2019-01-26T10:19:49.239Z,5.60
2019-01-26T10:20:48.209Z,5.63
2019-01-26T10:21:48.199Z,5.56
2019-01-26T10:22:48.181Z,5.68
2019-01-26T10:23:48.170Z,5.65
2019-01-26T10:24:48.159Z,5.63
2019-01-26T10:25:48.805Z,5.68
2019-01-26T10:26:48.142Z,5.71
2019-01-26T10:27:48.136Z,5.68
2019-01-26T10:28:48.129Z,5.68
2019-01-26T10:29:48.103Z,5.78
2019-01-26T10:30:48.121Z,5.78
2019-01-26T10:31:48.082Z,5.82
2019-01-26T10:32:48.074Z,5.78
2019-01-26T10:33:48.068Z,5.81
2019-01-26T10:34:48.084Z,5.75
2019-01-26T10:35:48.063Z,5.79
2019-01-26T10:36:48.030Z,5.79
2019-01-26T10:37:48.018Z,5.79
2019-01-26T10:38:48.007Z,5.86
2019-01-26T10:39:47.996Z,5.78
2019-01-26T10:40:48.012Z,5.82
2019-01-26T10:41:47.985Z,5.81
2019-01-26T10:42:47.989Z,5.81
2019-01-26T10:43:47.964Z,5.78
2019-01-26T10:44:49.258Z,5.89
2019-01-26T10:45:47.955Z,5.82
2019-01-26T10:46:47.919Z,5.86
2019-01-26T10:47:47.909Z,5.86
2019-01-26T10:48:47.898Z,5.83
2019-01-26T10:49:47.892Z,5.78
2019-01-26T10:50:47.900Z,5.83
2019-01-26T10:51:47.866Z,5.89
2019-01-26T10:52:47.855Z,5.90
2019-01-26T10:53:47.844Z,5.83
2019-01-26T10:54:47.833Z,5.90
2019-01-26T10:55:47.849Z,5.93
2019-01-26T10:56:47.825Z,5.91
2019-01-26T10:57:47.800Z,5.91
2019-01-26T10:58:47.789Z,5.89
2019-01-26T10:59:47.782Z,5.94
2019-01-26T11:00:47.790Z,5.96
2019-01-26T11:01:47.756Z,5.93
2019-01-26T11:02:47.750Z,5.93
2019-01-26T11:03:47.751Z,5.94
2019-01-26T11:04:47.724Z,5.93
2019-01-26T11:05:47.737Z,5.91
2019-01-26T11:06:47.702Z,5.99
2019-01-26T11:07:47.692Z,5.97
2019-01-26T11:08:47.679Z,6.08
2019-01-26T11:09:47.672Z,6.01
2019-01-26T11:10:47.688Z,6.06
2019-01-26T11:11:47.654Z,6.00
2019-01-26T11:12:47.646Z,6.03
2019-01-26T11:13:47.626Z,6.11
2019-01-26T11:14:47.617Z,6.09
2019-01-26T11:15:47.630Z,6.15
2019-01-26T11:16:47.594Z,6.03
2019-01-26T11:17:47.583Z,6.09
2019-01-26T11:18:47.584Z,6.08
2019-01-26T11:19:47.585Z,6.03
2019-01-26T11:20:47.574Z,6.12
2019-01-26T11:21:47.540Z,6.18
2019-01-26T11:22:47.530Z,6.09
2019-01-26T11:23:47.519Z,6.14
2019-01-26T11:24:47.507Z,6.11
2019-01-26T11:25:47.541Z,6.15
2019-01-26T11:26:49.461Z,6.19
2019-01-26T11:27:47.494Z,6.11
2019-01-26T11:28:47.465Z,6.17
2019-01-26T11:29:47.453Z,6.19
2019-01-26T11:30:47.466Z,6.27
2019-01-26T11:31:47.432Z,6.12
2019-01-26T11:32:47.419Z,6.17
2019-01-26T11:33:47.413Z,6.15
2019-01-26T11:34:47.402Z,6.09
2019-01-26T11:35:47.427Z,6.19
2019-01-26T11:36:47.376Z,6.18
2019-01-26T11:37:47.366Z,6.19
2019-01-26T11:38:47.354Z,6.34
2019-01-26T11:39:47.345Z,6.33
2019-01-26T11:40:47.356Z,6.31
2019-01-26T11:41:47.338Z,6.31
2019-01-26T11:42:47.311Z,6.33
2019-01-26T11:43:47.308Z,6.27
2019-01-26T11:44:47.597Z,6.41
2019-01-26T11:45:47.303Z,6.30
2019-01-26T11:46:47.267Z,6.28
2019-01-26T11:47:47.278Z,6.21
2019-01-26T11:48:47.245Z,6.25
2019-01-26T11:49:47.245Z,6.22
2019-01-26T11:50:47.248Z,6.19
2019-01-26T11:51:47.220Z,6.22
2019-01-26T11:52:47.201Z,6.27
2019-01-26T11:53:47.215Z,6.25
2019-01-26T11:54:47.182Z,6.21
2019-01-26T11:55:47.203Z,6.22
2019-01-26T11:56:47.158Z,6.17
2019-01-26T11:57:47.148Z,6.14
2019-01-26T11:58:47.137Z,6.18
2019-01-26T11:59:47.124Z,6.19
2019-01-26T12:00:47.161Z,6.15
2019-01-26T12:01:47.108Z,6.19
2019-01-26T12:02:47.116Z,6.14
2019-01-26T12:03:47.094Z,6.28
2019-01-26T12:04:47.089Z,6.27
2019-01-26T12:05:47.060Z,6.22
2019-01-26T12:06:47.078Z,6.28
2019-01-26T12:07:47.042Z,6.25
2019-01-26T12:08:47.032Z,6.22
2019-01-26T12:09:47.017Z,6.22
2019-01-26T12:10:47.013Z,6.27
2019-01-26T12:11:47.050Z,6.27
2019-01-26T12:12:46.984Z,6.34
2019-01-26T12:13:46.972Z,6.31
2019-01-26T12:14:46.969Z,6.25
2019-01-26T12:15:46.951Z,6.30
2019-01-26T12:16:46.992Z,6.30
2019-01-26T12:17:46.932Z,6.38
2019-01-26T12:18:46.919Z,6.38
2019-01-26T12:19:46.907Z,6.34
2019-01-26T12:20:46.894Z,6.38
2019-01-26T12:21:46.931Z,6.40
2019-01-26T12:22:46.894Z,6.44
2019-01-26T12:23:46.868Z,6.52
2019-01-26T12:24:46.851Z,6.52
2019-01-26T12:25:46.844Z,6.56
2019-01-26T12:26:46.853Z,6.54
2019-01-26T12:27:46.817Z,6.59
2019-01-26T12:28:46.821Z,6.56
2019-01-26T12:29:46.798Z,6.67
2019-01-26T12:30:46.785Z,6.52
2019-01-26T12:31:46.799Z,6.48
2019-01-26T12:32:46.766Z,6.48
2019-01-26T12:33:46.753Z,6.48
2019-01-26T12:34:46.759Z,6.44
2019-01-26T12:35:46.732Z,6.48
2019-01-26T12:36:46.746Z,6.51
2019-01-26T12:37:46.710Z,6.55
2019-01-26T12:38:46.699Z,6.49
2019-01-26T12:39:46.715Z,6.51
2019-01-26T12:40:46.683Z,6.51
2019-01-26T12:41:46.692Z,6.56
2019-01-26T12:42:46.693Z,6.51
2019-01-26T12:43:46.668Z,6.56
2019-01-26T12:44:46.646Z,6.66
2019-01-26T12:45:46.670Z,6.64
2019-01-26T12:46:46.667Z,6.59
2019-01-26T12:47:46.612Z,6.59
2019-01-26T12:48:46.595Z,6.69
2019-01-26T12:49:46.584Z,6.66
2019-01-26T12:50:46.610Z,6.64
2019-01-26T12:51:46.588Z,6.61
2019-01-26T12:52:46.543Z,6.66
2019-01-26T12:53:46.538Z,6.66
2019-01-26T12:54:46.522Z,6.70
2019-01-26T12:55:46.556Z,6.66
2019-01-26T12:56:46.555Z,6.64
2019-01-26T12:57:46.490Z,6.73
2019-01-26T12:58:46.481Z,6.64
2019-01-26T12:59:46.472Z,6.66
2019-01-26T13:00:46.455Z,6.58
2019-01-26T13:01:46.472Z,6.66
2019-01-26T13:02:46.436Z,6.66
2019-01-26T13:03:46.449Z,6.58
2019-01-26T13:04:46.423Z,6.51
2019-01-26T13:05:46.432Z,6.56
2019-01-26T13:06:46.477Z,6.70
2019-01-26T13:07:46.425Z,6.80
2019-01-26T13:08:46.368Z,6.71
2019-01-26T13:09:46.368Z,6.70
2019-01-26T13:10:46.374Z,6.69
2019-01-26T13:11:46.367Z,6.74
2019-01-26T13:12:46.329Z,6.71
2019-01-26T13:13:46.345Z,6.70
2019-01-26T13:14:46.319Z,6.73
2019-01-26T13:15:46.323Z,6.71
2019-01-26T13:16:46.342Z,6.69
2019-01-26T13:17:46.271Z,6.80
2019-01-26T13:18:46.261Z,6.79